createdAt,value
2019-02-02T00:01:10.486Z,14.93
2019-02-02T00:03:39.742Z,15.07
2019-02-02T00:06:08.978Z,14.50
2019-02-02T00:08:38.318Z,16.43
2019-02-02T00:11:08.005Z,15.80
2019-02-02T00:13:37.295Z,17.07
2019-02-02T00:16:06.483Z,17.13
2019-02-02T00:18:35.838Z,16.77
2019-02-02T00:21:06.415Z,17.00
2019-02-02T00:23:35.995Z,16.97
2019-02-02T00:26:05.251Z,17.80
2019-02-02T00:28:36.271Z,18.10
2019-02-02T00:31:05.524Z,16.23
2019-02-02T00:33:34.771Z,17.13
2019-02-02T00:36:04.021Z,16.10
2019-02-02T00:38:34.443Z,17.40
2019-02-02T00:41:03.780Z,16.93
2019-02-02T00:43:33.395Z,16.17
2019-02-02T00:46:03.012Z,16.00
2019-02-02T00:48:32.258Z,17.60
2019-02-02T00:51:01.551Z,16.03
2019-02-02T00:53:30.799Z,17.77
2019-02-02T00:56:00.042Z,16.87
2019-02-02T00:58:29.215Z,17.80
2019-02-02T01:00:58.460Z,17.23
2019-02-02T01:03:27.740Z,17.63
2019-02-02T01:05:56.986Z,17.60
2019-02-02T01:08:26.239Z,15.93
2019-02-02T01:10:55.487Z,16.97
2019-02-02T01:13:24.836Z,16.33
2019-02-02T01:15:54.085Z,16.60
2019-02-02T01:18:24.472Z,17.13
2019-02-02T01:20:53.751Z,16.93
2019-02-02T01:23:23.019Z,16.40
2019-02-02T01:25:52.589Z,16.40
2019-02-02T01:28:22.204Z,16.57
2019-02-02T01:30:52.427Z,16.90
2019-02-02T01:33:21.687Z,17.43
2019-02-02T01:35:50.935Z,16.43
2019-02-02T01:38:20.216Z,16.30
2019-02-02T01:40:49.493Z,16.47
2019-02-02T01:43:18.719Z,16.07
2019-02-02T01:45:48.139Z,15.97
2019-02-02T01:48:17.392Z,17.37
2019-02-02T01:50:46.642Z,16.73
2019-02-02T01:53:16.287Z,15.27
2019-02-02T01:55:45.535Z,15.97
2019-02-02T01:58:16.851Z,16.23
2019-02-02T02:00:45.814Z,15.97
2019-02-02T02:03:15.428Z,16.27
2019-02-02T02:05:45.655Z,17.03
2019-02-02T02:08:14.902Z,16.30
2019-02-02T02:10:45.139Z,17.77
2019-02-02T02:13:14.698Z,17.03
2019-02-02T02:15:43.952Z,16.50
2019-02-02T02:18:13.291Z,16.33
2019-02-02T02:20:43.507Z,17.53
2019-02-02T02:23:13.026Z,16.20
2019-02-02T02:25:42.309Z,17.77
2019-02-02T02:28:11.554Z,15.93
2019-02-02T02:30:40.803Z,17.13
2019-02-02T02:33:11.748Z,16.33
2019-02-02T02:35:41.000Z,16.17
2019-02-02T02:38:10.255Z,15.90
2019-02-02T02:40:39.502Z,15.97
2019-02-02T02:43:08.773Z,16.40
2019-02-02T02:45:38.302Z,17.17
2019-02-02T02:48:07.643Z,14.83
2019-02-02T02:50:37.799Z,16.47
2019-02-02T02:53:07.046Z,16.33
2019-02-02T02:55:36.643Z,16.37
2019-02-02T02:58:06.967Z,15.77
2019-02-02T03:00:36.211Z,16.27
2019-02-02T03:03:05.668Z,15.73
2019-02-02T03:05:34.920Z,17.27
2019-02-02T03:08:04.172Z,15.37
2019-02-02T03:10:33.427Z,16.43
2019-02-02T03:13:02.681Z,16.67
2019-02-02T03:15:31.955Z,17.17
2019-02-02T03:18:01.202Z,16.63
2019-02-02T03:20:30.452Z,17.63
2019-02-02T03:22:59.917Z,15.70
2019-02-02T03:25:29.167Z,16.27
2019-02-02T03:27:58.408Z,17.23
2019-02-02T03:30:27.812Z,17.03
2019-02-02T03:32:57.118Z,17.40
2019-02-02T03:35:27.395Z,16.97
2019-02-02T03:37:56.643Z,17.60
2019-02-02T03:40:25.895Z,16.37
2019-02-02T03:42:55.163Z,17.30
2019-02-02T03:45:24.672Z,19.03
2019-02-02T03:47:54.760Z,19.60
2019-02-02T03:50:24.018Z,17.87
2019-02-02T03:52:53.287Z,19.27
2019-02-02T03:55:22.663Z,18.87
2019-02-02T03:57:51.929Z,19.33
2019-02-02T04:00:22.208Z,21.07
2019-02-02T04:02:51.746Z,19.70
2019-02-02T04:05:26.743Z,19.17
2019-02-02T04:07:55.994Z,21.73
2019-02-02T04:10:25.247Z,23.33
2019-02-02T04:12:54.795Z,24.13
2019-02-02T04:15:24.178Z,21.73
2019-02-02T04:17:53.459Z,22.20
2019-02-02T04:20:23.349Z,22.67
2019-02-02T04:22:52.604Z,22.40
2019-02-02T04:25:22.743Z,22.90
2019-02-02T04:27:52.366Z,24.40
2019-02-02T04:30:23.685Z,23.80
2019-02-02T04:32:52.931Z,25.10
2019-02-02T04:35:22.835Z,21.83
2019-02-02T04:37:53.575Z,22.53
2019-02-02T04:40:23.179Z,25.70
2019-02-02T04:42:53.468Z,24.63
2019-02-02T04:45:22.723Z,25.10
2019-02-02T04:47:52.073Z,23.70
2019-02-02T04:50:21.697Z,24.97
2019-02-02T04:52:50.951Z,25.27
2019-02-02T04:55:21.244Z,23.10
2019-02-02T04:57:50.495Z,24.20
2019-02-02T05:00:25.691Z,24.70
2019-02-02T05:02:55.167Z,26.33
2019-02-02T05:05:24.522Z,27.17
2019-02-02T05:07:54.224Z,26.90
2019-02-02T05:10:24.223Z,28.80
2019-02-02T05:12:53.778Z,26.20
2019-02-02T05:15:23.094Z,28.23
2019-02-02T05:17:52.664Z,29.07
2019-02-02T05:20:22.991Z,26.43
2019-02-02T05:22:53.556Z,26.57
2019-02-02T05:25:22.859Z,27.50
2019-02-02T05:27:52.440Z,26.53
2019-02-02T05:30:27.843Z,24.83
2019-02-02T05:32:57.091Z,25.90
2019-02-02T05:35:27.603Z,26.27
2019-02-02T05:37:58.863Z,26.53
2019-02-02T05:40:28.115Z,25.23
2019-02-02T05:42:57.373Z,28.40
2019-02-02T05:45:26.619Z,25.97
2019-02-02T05:47:55.895Z,24.17
2019-02-02T05:50:25.219Z,20.97
2019-02-02T05:52:56.091Z,20.60
2019-02-02T05:55:25.483Z,20.20
2019-02-02T05:57:55.799Z,20.93
2019-02-02T06:00:31.566Z,19.70
2019-02-02T06:03:00.819Z,21.73
2019-02-02T06:05:30.072Z,19.07
2019-02-02T06:07:59.326Z,20.87
2019-02-02T06:10:28.575Z,19.80
2019-02-02T06:12:58.923Z,18.07
2019-02-02T06:15:28.844Z,20.97
2019-02-02T06:17:58.392Z,19.67
2019-02-02T06:20:27.647Z,19.27
2019-02-02T06:22:56.890Z,21.00
2019-02-02T06:25:26.195Z,20.40
2019-02-02T06:27:55.435Z,19.63
2019-02-02T06:30:25.328Z,20.87
2019-02-02T06:32:54.583Z,19.27
2019-02-02T06:35:23.835Z,20.77
2019-02-02T06:37:53.248Z,20.80
2019-02-02T06:40:24.204Z,20.47
2019-02-02T06:42:53.463Z,21.80
2019-02-02T06:45:26.320Z,22.60
2019-02-02T06:47:57.147Z,21.70
2019-02-02T06:50:26.696Z,22.77
2019-02-02T06:52:56.387Z,23.10
2019-02-02T06:55:25.636Z,23.00
2019-02-02T06:57:54.891Z,23.10
2019-02-02T07:00:29.107Z,23.77
2019-02-02T07:02:59.115Z,23.07
2019-02-02T07:05:28.371Z,21.60
2019-02-02T07:07:57.623Z,23.83
2019-02-02T07:10:28.711Z,23.43
2019-02-02T07:12:57.959Z,24.57
2019-02-02T07:15:31.366Z,24.53
2019-02-02T07:18:00.592Z,23.37
2019-02-02T07:20:29.841Z,26.53
2019-02-02T07:22:59.091Z,26.27
2019-02-02T07:25:28.351Z,21.87
2019-02-02T07:27:57.643Z,23.27
2019-02-02T07:30:29.489Z,22.90
2019-02-02T07:32:57.876Z,23.07
2019-02-02T07:35:27.373Z,22.93
2019-02-02T07:37:56.624Z,23.20
2019-02-02T07:40:25.881Z,24.27
2019-02-02T07:42:57.235Z,22.83
2019-02-02T07:45:29.241Z,24.37
2019-02-02T07:47:58.832Z,24.43
2019-02-02T07:50:28.083Z,32.37
2019-02-02T07:52:57.336Z,26.23
2019-02-02T07:55:26.583Z,26.57
2019-02-02T07:57:56.597Z,23.47
2019-02-02T08:00:39.732Z,24.43
2019-02-02T08:02:59.095Z,24.33
2019-02-02T08:05:28.351Z,26.13
2019-02-02T08:07:57.600Z,26.83
2019-02-02T08:10:27.143Z,27.27
2019-02-02T08:12:56.396Z,26.17
2019-02-02T08:15:27.890Z,27.27
2019-02-02T08:17:57.172Z,26.00
2019-02-02T08:20:28.313Z,24.00
2019-02-02T08:22:57.612Z,22.60
2019-02-02T08:25:26.943Z,22.67
2019-02-02T08:27:56.168Z,32.80
2019-02-02T08:30:27.547Z,26.43
2019-02-02T08:33:08.816Z,24.70
2019-02-02T08:35:38.062Z,24.40
2019-02-02T08:38:07.315Z,24.60
2019-02-02T08:40:36.580Z,24.13
2019-02-02T08:43:06.827Z,24.20
2019-02-02T08:45:36.123Z,25.87
2019-02-02T08:48:05.493Z,25.53
2019-02-02T08:50:36.383Z,29.57
2019-02-02T08:53:06.013Z,27.70
2019-02-02T08:55:35.341Z,28.60
2019-02-02T08:58:05.672Z,28.27
2019-02-02T09:00:35.033Z,28.40
2019-02-02T09:03:04.284Z,29.37
2019-02-02T09:05:33.531Z,28.43
2019-02-02T09:08:02.784Z,27.77
2019-02-02T09:10:32.079Z,28.17
2019-02-02T09:13:01.449Z,28.57
2019-02-02T09:15:30.695Z,27.43
2019-02-02T09:18:00.352Z,28.47
2019-02-02T09:20:29.604Z,28.90
2019-02-02T09:23:05.752Z,28.40
2019-02-02T09:25:30.103Z,25.83
2019-02-02T09:27:59.363Z,27.50
2019-02-02T09:30:33.867Z,31.33
2019-02-02T09:33:03.925Z,30.50
2019-02-02T09:35:33.244Z,28.27
2019-02-02T09:38:02.499Z,28.67
2019-02-02T09:40:32.104Z,30.50
2019-02-02T09:43:01.354Z,29.17
2019-02-02T09:45:32.879Z,29.07
2019-02-02T09:48:02.131Z,30.37
2019-02-02T09:50:31.382Z,29.37
2019-02-02T09:53:00.635Z,28.40
2019-02-02T09:55:29.887Z,29.47
2019-02-02T09:58:08.434Z,30.30
2019-02-02T10:00:36.426Z,29.77
2019-02-02T10:03:06.149Z,29.73
2019-02-02T10:05:35.399Z,31.87
2019-02-02T10:08:04.651Z,31.97
2019-02-02T10:10:34.644Z,32.53
2019-02-02T10:13:05.787Z,30.50
2019-02-02T10:15:36.587Z,33.27
2019-02-02T10:18:06.268Z,32.53
2019-02-02T10:20:35.521Z,32.40
2019-02-02T10:23:04.778Z,28.77
2019-02-02T10:25:34.144Z,35.60
2019-02-02T10:28:03.408Z,34.40
2019-02-02T10:30:34.959Z,35.80
2019-02-02T10:33:04.487Z,33.87
2019-02-02T10:35:33.811Z,34.03
2019-02-02T10:38:04.398Z,33.77
2019-02-02T10:40:33.644Z,35.07
2019-02-02T10:43:03.677Z,35.73
2019-02-02T10:45:33.196Z,33.50
2019-02-02T10:48:03.139Z,33.37
2019-02-02T10:50:32.651Z,34.40
2019-02-02T10:53:01.911Z,33.77
2019-02-02T10:55:31.556Z,31.00
2019-02-02T10:58:00.812Z,34.97
2019-02-02T11:00:33.815Z,34.30
2019-02-02T11:03:03.062Z,32.07
2019-02-02T11:05:32.323Z,33.17
2019-02-02T11:08:01.728Z,33.27
2019-02-02T11:10:32.440Z,36.43
2019-02-02T11:13:01.659Z,34.47
2019-02-02T11:15:30.929Z,38.13
2019-02-02T11:18:00.199Z,37.03
2019-02-02T11:20:32.141Z,35.60
2019-02-02T11:23:01.540Z,34.60
2019-02-02T11:25:31.242Z,32.83
2019-02-02T11:28:00.916Z,34.83
2019-02-02T11:30:30.329Z,34.57
2019-02-02T11:32:59.588Z,33.10
2019-02-02T11:35:29.125Z,34.13
2019-02-02T11:38:00.133Z,32.80
2019-02-02T11:40:33.867Z,33.50
2019-02-02T11:43:03.514Z,34.97
2019-02-02T11:45:32.775Z,31.03
2019-02-02T11:48:02.024Z,31.17
2019-02-02T11:50:31.599Z,32.17
2019-02-02T11:53:00.849Z,30.33
2019-02-02T11:55:31.092Z,31.90
2019-02-02T11:58:00.346Z,33.53
2019-02-02T12:00:38.115Z,32.30
2019-02-02T12:03:07.363Z,33.17
2019-02-02T12:05:36.627Z,33.57
2019-02-02T12:08:06.041Z,33.87
2019-02-02T12:10:35.930Z,32.40
2019-02-02T12:13:05.671Z,34.47
2019-02-02T12:15:36.364Z,32.43
2019-02-02T12:18:06.351Z,32.30
2019-02-02T12:20:35.769Z,33.47
2019-02-02T12:23:05.055Z,32.83
2019-02-02T12:25:34.299Z,32.20
2019-02-02T12:28:03.549Z,32.33
2019-02-02T12:30:34.468Z,33.07
2019-02-02T12:33:04.090Z,32.33
2019-02-02T12:35:33.341Z,32.90
2019-02-02T12:38:03.387Z,32.57
2019-02-02T12:40:33.134Z,31.83
2019-02-02T12:43:02.382Z,35.63
2019-02-02T12:45:37.603Z,31.47
2019-02-02T12:48:08.349Z,31.80
2019-02-02T12:50:37.918Z,31.50
2019-02-02T12:53:07.239Z,31.40
2019-02-02T12:55:36.511Z,33.90
2019-02-02T12:58:06.593Z,31.97
2019-02-02T13:00:35.834Z,29.80
2019-02-02T13:03:05.315Z,30.50
2019-02-02T13:05:34.600Z,31.83
2019-02-02T13:08:05.274Z,32.97
2019-02-02T13:10:36.754Z,33.27
2019-02-02T13:13:06.359Z,33.97
2019-02-02T13:15:35.615Z,34.77
2019-02-02T13:18:04.872Z,33.60
2019-02-02T13:20:34.340Z,33.10
2019-02-02T13:23:03.576Z,30.60
2019-02-02T13:25:32.839Z,31.90
2019-02-02T13:28:02.804Z,33.43
2019-02-02T13:30:35.772Z,33.27
2019-02-02T13:33:05.311Z,33.10
2019-02-02T13:35:36.398Z,31.93
2019-02-02T13:38:05.655Z,30.90
2019-02-02T13:40:34.904Z,33.20
2019-02-02T13:43:04.164Z,32.13
2019-02-02T13:45:33.418Z,30.13
2019-02-02T13:48:02.667Z,32.33
2019-02-02T13:50:32.976Z,33.30
2019-02-02T13:53:02.497Z,31.63
2019-02-02T13:55:31.739Z,31.97
2019-02-02T13:58:00.964Z,35.23
2019-02-02T14:00:33.857Z,35.33
2019-02-02T14:03:03.832Z,33.13
2019-02-02T14:05:33.463Z,33.27
2019-02-02T14:08:02.719Z,34.57
2019-02-02T14:10:33.709Z,33.70
2019-02-02T14:13:03.071Z,32.37
2019-02-02T14:15:32.328Z,34.27
2019-02-02T14:18:01.571Z,33.03
2019-02-02T14:20:31.215Z,36.63
2019-02-02T14:23:00.460Z,34.60
2019-02-02T14:25:29.760Z,37.90
2019-02-02T14:27:59.183Z,33.40
2019-02-02T14:30:28.811Z,30.97
2019-02-02T14:32:58.068Z,33.57
2019-02-02T14:35:28.575Z,33.03
2019-02-02T14:37:57.831Z,32.97
2019-02-02T14:40:27.100Z,34.07
2019-02-02T14:42:56.692Z,32.93
2019-02-02T14:45:27.590Z,33.27
2019-02-02T14:47:57.341Z,34.83
2019-02-02T14:50:26.592Z,34.23
2019-02-02T14:52:57.039Z,32.03
2019-02-02T14:55:28.330Z,32.43
2019-02-02T14:57:57.674Z,32.50
2019-02-02T15:00:29.464Z,34.00
2019-02-02T15:02:58.726Z,36.20
2019-02-02T15:05:27.962Z,35.77
2019-02-02T15:07:57.216Z,35.57
2019-02-02T15:10:26.788Z,36.27
2019-02-02T15:12:57.895Z,36.10
2019-02-02T15:15:27.138Z,34.10
2019-02-02T15:17:56.699Z,35.53
2019-02-02T15:20:28.646Z,36.00
2019-02-02T15:22:58.221Z,33.80
2019-02-02T15:25:27.567Z,35.20
2019-02-02T15:27:57.138Z,35.27
2019-02-02T15:30:34.075Z,36.73
2019-02-02T15:33:03.956Z,34.47
2019-02-02T15:35:33.306Z,38.20
2019-02-02T15:38:02.560Z,37.63
2019-02-02T15:40:32.037Z,38.40
2019-02-02T15:43:01.382Z,36.73
2019-02-02T15:45:32.360Z,38.20
2019-02-02T15:48:03.811Z,41.30
2019-02-02T15:50:33.063Z,41.10
2019-02-02T15:53:04.635Z,39.10
2019-02-02T15:55:33.897Z,39.30
2019-02-02T15:58:03.147Z,40.57
2019-02-02T16:00:34.539Z,42.77
2019-02-02T16:03:05.367Z,40.53
2019-02-02T16:05:35.363Z,38.03
2019-02-02T16:08:08.089Z,43.73
2019-02-02T16:10:37.343Z,42.80
2019-02-02T16:13:06.621Z,41.10
2019-02-02T16:15:35.851Z,38.33
2019-02-02T16:18:05.550Z,36.70
2019-02-02T16:20:42.224Z,38.03
2019-02-02T16:23:11.753Z,38.23
2019-02-02T16:25:40.963Z,40.40
2019-02-02T16:28:10.215Z,39.03
2019-02-02T16:30:39.819Z,39.23
2019-02-02T16:33:09.121Z,39.83
2019-02-02T16:35:38.375Z,38.70
2019-02-02T16:38:07.628Z,36.17
2019-02-02T16:40:36.882Z,36.60
2019-02-02T16:43:06.143Z,34.77
2019-02-02T16:45:35.747Z,63.23
2019-02-02T16:48:05.551Z,36.27
2019-02-02T16:50:34.956Z,36.90
2019-02-02T16:53:04.580Z,34.80
2019-02-02T16:55:35.320Z,34.63
2019-02-02T16:58:04.739Z,35.33
2019-02-02T17:00:34.555Z,34.47
2019-02-02T17:03:03.822Z,35.77
2019-02-02T17:05:33.067Z,36.97
2019-02-02T17:08:02.656Z,37.37
2019-02-02T17:10:33.949Z,37.93
2019-02-02T17:13:05.141Z,40.53
2019-02-02T17:15:34.764Z,38.90
2019-02-02T17:18:04.556Z,40.53
2019-02-02T17:20:36.610Z,38.17
2019-02-02T17:23:06.034Z,39.10
2019-02-02T17:25:35.668Z,34.43
2019-02-02T17:28:05.460Z,38.73
2019-02-02T17:30:35.007Z,34.97
2019-02-02T17:33:09.480Z,38.20
2019-02-02T17:35:38.738Z,39.50
2019-02-02T17:38:07.991Z,37.20
2019-02-02T17:40:37.245Z,38.63
2019-02-02T17:43:06.600Z,37.97
2019-02-02T17:45:36.136Z,41.33
2019-02-02T17:48:05.919Z,36.73
2019-02-02T17:50:36.241Z,38.30
2019-02-02T17:53:05.487Z,36.43
2019-02-02T17:55:35.707Z,34.50
2019-02-02T17:58:04.963Z,34.23
2019-02-02T18:00:38.319Z,35.50
2019-02-02T18:03:07.578Z,36.40
2019-02-02T18:05:36.823Z,36.33
2019-02-02T18:08:06.075Z,38.93
2019-02-02T18:10:35.619Z,36.97
2019-02-02T18:13:04.988Z,35.03
2019-02-02T18:15:34.236Z,36.27
2019-02-02T18:18:03.756Z,37.20
2019-02-02T18:20:33.012Z,37.43
2019-02-02T18:23:02.264Z,36.23
2019-02-02T18:25:33.390Z,34.90
2019-02-02T18:28:22.164Z,34.50
2019-02-02T18:30:51.447Z,34.43
2019-02-02T18:33:21.086Z,33.20
2019-02-02T18:35:50.336Z,32.87
2019-02-02T18:38:19.592Z,33.53
2019-02-02T18:40:48.839Z,34.00
2019-02-02T18:43:18.093Z,35.57
2019-02-02T18:45:47.344Z,40.20
2019-02-02T18:48:16.647Z,31.90
2019-02-02T18:50:46.207Z,34.00
2019-02-02T18:53:15.823Z,33.60
2019-02-02T18:55:51.989Z,34.43
2019-02-02T18:58:21.735Z,35.13
2019-02-02T19:00:51.379Z,34.40
2019-02-02T19:03:20.643Z,33.60
2019-02-02T19:05:49.895Z,33.80
2019-02-02T19:08:19.502Z,33.17
2019-02-02T19:10:48.778Z,38.27
2019-02-02T19:13:18.022Z,38.47
2019-02-02T19:15:47.544Z,33.40
2019-02-02T19:18:16.875Z,36.17
2019-02-02T19:20:46.455Z,33.53
2019-02-02T19:23:24.930Z,35.83
2019-02-02T19:25:46.629Z,34.03
2019-02-02T19:28:15.872Z,34.13
2019-02-02T19:30:45.588Z,34.43
2019-02-02T19:33:15.203Z,33.47
2019-02-02T19:35:44.452Z,35.07
2019-02-02T19:38:13.702Z,35.17
2019-02-02T19:40:42.956Z,34.17
2019-02-02T19:43:12.230Z,35.73
2019-02-02T19:45:41.480Z,35.13
2019-02-02T19:48:10.735Z,36.13
2019-02-02T19:50:40.121Z,35.53
2019-02-02T19:53:09.589Z,35.80
2019-02-02T19:55:38.807Z,36.37
2019-02-02T19:58:08.855Z,35.37
2019-02-02T20:00:38.147Z,36.37
2019-02-02T20:03:07.527Z,37.03
2019-02-02T20:05:37.284Z,39.60
2019-02-02T20:08:06.535Z,39.60
2019-02-02T20:10:35.810Z,38.23
2019-02-02T20:13:06.352Z,38.80
2019-02-02T20:15:35.923Z,36.97
2019-02-02T20:18:09.843Z,39.13
2019-02-02T20:20:36.788Z,37.97
2019-02-02T20:23:06.042Z,39.90
2019-02-02T20:25:35.393Z,40.23
2019-02-02T20:28:04.679Z,38.37
2019-02-02T20:30:33.935Z,40.17
2019-02-02T20:33:03.196Z,37.10
2019-02-02T20:35:40.881Z,36.57
2019-02-02T20:38:03.659Z,39.13
2019-02-02T20:40:33.270Z,39.47
2019-02-02T20:43:02.549Z,39.00
2019-02-02T20:45:37.205Z,39.03
2019-02-02T20:48:07.795Z,38.60
2019-02-02T20:50:37.043Z,39.77
2019-02-02T20:53:06.313Z,40.40
2019-02-02T20:55:38.936Z,39.33
2019-02-02T20:58:08.182Z,39.67
2019-02-02T21:00:38.492Z,41.33
2019-02-02T21:03:07.747Z,39.77
2019-02-02T21:05:37.645Z,41.47
2019-02-02T21:08:07.191Z,41.77
2019-02-02T21:10:36.457Z,41.97
2019-02-02T21:13:05.711Z,40.33
2019-02-02T21:15:34.963Z,39.83
2019-02-02T21:18:04.800Z,41.00
2019-02-02T21:20:35.328Z,43.57
2019-02-02T21:23:04.592Z,43.87
2019-02-02T21:25:34.046Z,43.53
2019-02-02T21:28:04.847Z,41.27
2019-02-02T21:30:35.455Z,41.83
2019-02-02T21:33:05.272Z,42.13
2019-02-02T21:35:34.839Z,43.07
2019-02-02T21:38:04.279Z,44.83
2019-02-02T21:40:34.679Z,44.10
2019-02-02T21:43:04.012Z,41.43
2019-02-02T21:45:34.077Z,43.47
2019-02-02T21:48:03.323Z,45.63
2019-02-02T21:50:32.579Z,46.13
2019-02-02T21:53:01.836Z,46.43
2019-02-02T21:55:31.214Z,47.53
2019-02-02T21:58:00.551Z,47.67
2019-02-02T22:00:35.364Z,47.60
2019-02-02T22:03:07.587Z,48.27
2019-02-02T22:05:36.845Z,45.93
2019-02-02T22:08:06.841Z,48.23
2019-02-02T22:10:36.095Z,46.87
2019-02-02T22:13:05.728Z,48.97
2019-02-02T22:15:36.909Z,48.60
2019-02-02T22:18:06.521Z,47.60
2019-02-02T22:20:35.803Z,50.17
2019-02-02T22:23:05.059Z,49.40
2019-02-02T22:25:34.635Z,50.60
2019-02-02T22:28:03.891Z,49.40
2019-02-02T22:30:38.899Z,50.10
2019-02-02T22:33:08.151Z,49.60
2019-02-02T22:35:37.414Z,51.80
2019-02-02T22:38:06.666Z,52.07
2019-02-02T22:40:35.919Z,50.70
2019-02-02T22:43:05.387Z,47.57
2019-02-02T22:45:34.641Z,53.33
2019-02-02T22:48:04.644Z,55.17
2019-02-02T22:50:33.904Z,54.57
2019-02-02T22:53:03.155Z,54.10
2019-02-02T22:55:33.753Z,51.17
2019-02-02T22:58:03.003Z,52.47
2019-02-02T23:00:51.706Z,55.57
2019-02-02T23:03:24.791Z,52.17
2019-02-02T23:06:00.078Z,53.53
2019-02-02T23:08:41.181Z,54.20
2019-02-02T23:11:42.499Z,52.30
2019-02-02T23:14:30.231Z,50.30
2019-02-02T23:16:59.553Z,53.43
2019-02-02T23:19:28.792Z,54.23
2019-02-02T23:21:58.047Z,53.40
2019-02-02T23:24:27.303Z,52.47
2019-02-02T23:26:56.891Z,52.73
2019-02-02T23:29:26.880Z,50.03
2019-02-02T23:31:56.132Z,48.40
2019-02-02T23:34:25.386Z,51.93
2019-02-02T23:36:56.103Z,52.57
2019-02-02T23:39:25.655Z,47.97
2019-02-02T23:41:54.999Z,49.03
2019-02-02T23:44:24.246Z,48.50
2019-02-02T23:46:56.096Z,47.80
2019-02-02T23:49:25.641Z,47.37
2019-02-02T23:51:55.195Z,48.93
2019-02-02T23:54:24.452Z,46.07
2019-02-02T23:56:53.703Z,45.07
2019-02-02T23:59:22.985Z,48.23
